sensor_id;sensor_type;location;lat;lon;timestamp;P1;durP1;ratioP1;P2;durP2;ratioP2
22046;SDS011;11187;49.412;20.956;2024-01-27T00:00:03;36.88;;;34.15;;
22046;SDS011;11187;49.412;20.956;2024-01-27T00:02:44;33.92;;;31.27;;
22046;SDS011;11187;49.412;20.956;2024-01-27T00:05:31;31.83;;;29.92;;
22046;SDS011;11187;49.412;20.956;2024-01-27T00:08:11;32.15;;;30.27;;
22046;SDS011;11187;49.412;20.956;2024-01-27T00:10:58;31.77;;;29.77;;
22046;SDS011;11187;49.412;20.956;2024-01-27T00:13:38;31.33;;;29.15;;
22046;SDS011;11187;49.412;20.956;2024-01-27T00:16:25;31.75;;;29.95;;
22046;SDS011;11187;49.412;20.956;2024-01-27T00:19:05;34.28;;;32.13;;
22046;SDS011;11187;49.412;20.956;2024-01-27T00:21:45;31.38;;;29.58;;
22046;SDS011;11187;49.412;20.956;2024-01-27T00:24:32;31.60;;;29.67;;
22046;SDS011;11187;49.412;20.956;2024-01-27T00:27:26;30.63;;;28.83;;
22046;SDS011;11187;49.412;20.956;2024-01-27T00:30:20;31.63;;;29.73;;
22046;SDS011;11187;49.412;20.956;2024-01-27T00:32:54;29.25;;;27.55;;
22046;SDS011;11187;49.412;20.956;2024-01-27T00:35:40;29.40;;;27.70;;
22046;SDS011;11187;49.412;20.956;2024-01-27T00:38:14;28.55;;;26.73;;
22046;SDS011;11187;49.412;20.956;2024-01-27T00:41:00;26.65;;;25.05;;
22046;SDS011;11187;49.412;20.956;2024-01-27T00:43:34;30.42;;;28.58;;
22046;SDS011;11187;49.412;20.956;2024-01-27T00:46:20;30.40;;;28.55;;
22046;SDS011;11187;49.412;20.956;2024-01-27T00:48:54;30.45;;;28.52;;
22046;SDS011;11187;49.412;20.956;2024-01-27T00:51:40;30.92;;;29.13;;
22046;SDS011;11187;49.412;20.956;2024-01-27T00:54:14;30.73;;;29.02;;
22046;SDS011;11187;49.412;20.956;2024-01-27T00:57:00;31.77;;;29.77;;
22046;SDS011;11187;49.412;20.956;2024-01-27T00:59:34;29.48;;;27.77;;
22046;SDS011;11187;49.412;20.956;2024-01-27T01:02:20;29.00;;;27.30;;
22046;SDS011;11187;49.412;20.956;2024-01-27T01:04:54;28.95;;;27.15;;
22046;SDS011;11187;49.412;20.956;2024-01-27T01:07:40;26.70;;;25.13;;
22046;SDS011;11187;49.412;20.956;2024-01-27T01:10:14;28.63;;;26.92;;
22046;SDS011;11187;49.412;20.956;2024-01-27T01:13:00;27.30;;;25.63;;
22046;SDS011;11187;49.412;20.956;2024-01-27T01:15:34;28.38;;;26.70;;
22046;SDS011;11187;49.412;20.956;2024-01-27T01:18:20;30.48;;;28.77;;
22046;SDS011;11187;49.412;20.956;2024-01-27T01:20:54;31.10;;;29.38;;
22046;SDS011;11187;49.412;20.956;2024-01-27T01:23:47;30.33;;;28.52;;
22046;SDS011;11187;49.412;20.956;2024-01-27T01:26:21;31.92;;;30.10;;
22046;SDS011;11187;49.412;20.956;2024-01-27T01:29:14;31.48;;;29.67;;
22046;SDS011;11187;49.412;20.956;2024-01-27T01:32:10;34.28;;;32.28;;
22046;SDS011;11187;49.412;20.956;2024-01-27T01:34:45;33.35;;;31.25;;
22046;SDS011;11187;49.412;20.956;2024-01-27T01:37:32;34.22;;;32.28;;
22046;SDS011;11187;49.412;20.956;2024-01-27T01:40:06;33.03;;;31.13;;
22046;SDS011;11187;49.412;20.956;2024-01-27T01:42:54;29.38;;;27.77;;
22046;SDS011;11187;49.412;20.956;2024-01-27T01:45:28;31.45;;;29.60;;
22046;SDS011;11187;49.412;20.956;2024-01-27T01:48:14;32.55;;;30.67;;
22046;SDS011;11187;49.412;20.956;2024-01-27T01:50:48;32.78;;;30.73;;
22046;SDS011;11187;49.412;20.956;2024-01-27T01:53:42;33.35;;;31.33;;
22046;SDS011;11187;49.412;20.956;2024-01-27T01:56:18;30.83;;;28.92;;
22046;SDS011;11187;49.412;20.956;2024-01-27T01:59:11;34.30;;;32.30;;
22046;SDS011;11187;49.412;20.956;2024-01-27T02:01:47;32.90;;;30.83;;
22046;SDS011;11187;49.412;20.956;2024-01-27T02:04:41;30.58;;;28.77;;
22046;SDS011;11187;49.412;20.956;2024-01-27T02:07:22;28.00;;;26.40;;
22046;SDS011;11187;49.412;20.956;2024-01-27T02:10:02;25.75;;;24.35;;
22046;SDS011;11187;49.412;20.956;2024-01-27T02:12:42;26.60;;;25.00;;
22046;SDS011;11187;49.412;20.956;2024-01-27T02:15:29;30.20;;;28.30;;
22046;SDS011;11187;49.412;20.956;2024-01-27T02:18:03;32.10;;;30.00;;
22046;SDS011;11187;49.412;20.956;2024-01-27T02:20:49;33.28;;;31.30;;
22046;SDS011;11187;49.412;20.956;2024-01-27T02:23:32;33.33;;;31.30;;
22046;SDS011;11187;49.412;20.956;2024-01-27T02:26:11;28.88;;;27.20;;
22046;SDS011;11187;49.412;20.956;2024-01-27T02:28:52;27.90;;;26.30;;
22046;SDS011;11187;49.412;20.956;2024-01-27T02:31:38;29.95;;;28.02;;
22046;SDS011;11187;49.412;20.956;2024-01-27T02:34:19;30.13;;;28.23;;
22046;SDS011;11187;49.412;20.956;2024-01-27T02:37:05;30.33;;;28.52;;
22046;SDS011;11187;49.412;20.956;2024-01-27T02:39:39;27.83;;;25.65;;
22046;SDS011;11187;49.412;20.956;2024-01-27T02:42:25;31.35;;;29.38;;
22046;SDS011;11187;49.412;20.956;2024-01-27T02:44:59;32.22;;;30.02;;
22046;SDS011;11187;49.412;20.956;2024-01-27T02:47:47;27.15;;;25.45;;
22046;SDS011;11187;49.412;20.956;2024-01-27T02:50:21;28.60;;;26.35;;
22046;SDS011;11187;49.412;20.956;2024-01-27T02:53:07;29.15;;;27.20;;
22046;SDS011;11187;49.412;20.956;2024-01-27T02:55:41;26.90;;;24.95;;
22046;SDS011;11187;49.412;20.956;2024-01-27T02:58:27;27.38;;;25.52;;
22046;SDS011;11187;49.412;20.956;2024-01-27T03:01:01;28.35;;;26.48;;
22046;SDS011;11187;49.412;20.956;2024-01-27T03:03:47;26.40;;;24.85;;
22046;SDS011;11187;49.412;20.956;2024-01-27T03:06:28;28.88;;;27.02;;
22046;SDS011;11187;49.412;20.956;2024-01-27T03:09:14;27.23;;;25.35;;
22046;SDS011;11187;49.412;20.956;2024-01-27T03:11:48;23.25;;;21.65;;
22046;SDS011;11187;49.412;20.956;2024-01-27T03:14:34;28.48;;;26.25;;
22046;SDS011;11187;49.412;20.956;2024-01-27T03:17:15;26.40;;;24.50;;
22046;SDS011;11187;49.412;20.956;2024-01-27T03:19:54;22.17;;;20.35;;
22046;SDS011;11187;49.412;20.956;2024-01-27T03:22:35;23.23;;;21.42;;
22046;SDS011;11187;49.412;20.956;2024-01-27T03:25:21;21.85;;;20.55;;
22046;SDS011;11187;49.412;20.956;2024-01-27T03:28:02;24.13;;;22.35;;
22046;SDS011;11187;49.412;20.956;2024-01-27T03:30:48;27.73;;;25.83;;
22046;SDS011;11187;49.412;20.956;2024-01-27T03:33:29;26.60;;;24.95;;
22046;SDS011;11187;49.412;20.956;2024-01-27T03:36:08;25.75;;;24.05;;
22046;SDS011;11187;49.412;20.956;2024-01-27T03:38:58;23.05;;;21.70;;
22046;SDS011;11187;49.412;20.956;2024-01-27T03:41:33;23.33;;;21.58;;
22046;SDS011;11187;49.412;20.956;2024-01-27T03:44:23;24.23;;;22.58;;
22046;SDS011;11187;49.412;20.956;2024-01-27T03:46:57;24.73;;;22.85;;
22046;SDS011;11187;49.412;20.956;2024-01-27T03:49:43;21.35;;;19.73;;
22046;SDS011;11187;49.412;20.956;2024-01-27T03:52:24;20.10;;;18.75;;
22046;SDS011;11187;49.412;20.956;2024-01-27T03:55:03;19.85;;;18.50;;
22046;SDS011;11187;49.412;20.956;2024-01-27T03:57:45;17.20;;;15.90;;
22046;SDS011;11187;49.412;20.956;2024-01-27T04:00:31;18.55;;;17.13;;
22046;SDS011;11187;49.412;20.956;2024-01-27T04:03:10;19.88;;;18.00;;
22046;SDS011;11187;49.412;20.956;2024-01-27T04:05:57;16.90;;;15.38;;
22046;SDS011;11187;49.412;20.956;2024-01-27T04:08:31;17.33;;;16.05;;
22046;SDS011;11187;49.412;20.956;2024-01-27T04:11:21;18.63;;;17.08;;
22046;SDS011;11187;49.412;20.956;2024-01-27T04:13:55;17.20;;;15.57;;
22046;SDS011;11187;49.412;20.956;2024-01-27T04:16:41;18.42;;;16.98;;
22046;SDS011;11187;49.412;20.956;2024-01-27T04:19:15;16.65;;;15.40;;
22046;SDS011;11187;49.412;20.956;2024-01-27T04:22:01;16.60;;;15.15;;
22046;SDS011;11187;49.412;20.956;2024-01-27T04:24:36;16.70;;;15.35;;
22046;SDS011;11187;49.412;20.956;2024-01-27T04:27:22;14.73;;;13.63;;
22046;SDS011;11187;49.412;20.956;2024-01-27T04:29:56;17.80;;;16.10;;
22046;SDS011;11187;49.412;20.956;2024-01-27T04:32:46;15.52;;;14.30;;
22046;SDS011;11187;49.412;20.956;2024-01-27T04:35:25;16.75;;;15.55;;
22046;SDS011;11187;49.412;20.956;2024-01-27T04:38:11;16.58;;;15.50;;
22046;SDS011;11187;49.412;20.956;2024-01-27T04:40:45;17.60;;;15.75;;
22046;SDS011;11187;49.412;20.956;2024-01-27T04:43:31;17.10;;;15.52;;
22046;SDS011;11187;49.412;20.956;2024-01-27T04:46:05;19.05;;;17.42;;
22046;SDS011;11187;49.412;20.956;2024-01-27T04:48:51;18.10;;;16.27;;
22046;SDS011;11187;49.412;20.956;2024-01-27T04:51:25;19.00;;;17.42;;
22046;SDS011;11187;49.412;20.956;2024-01-27T04:54:11;18.88;;;17.10;;
22046;SDS011;11187;49.412;20.956;2024-01-27T04:56:45;18.92;;;17.48;;
22046;SDS011;11187;49.412;20.956;2024-01-27T04:59:31;18.15;;;16.55;;
22046;SDS011;11187;49.412;20.956;2024-01-27T05:02:05;18.17;;;16.67;;
22046;SDS011;11187;49.412;20.956;2024-01-27T05:04:51;17.65;;;16.25;;
22046;SDS011;11187;49.412;20.956;2024-01-27T05:07:25;18.77;;;17.38;;
22046;SDS011;11187;49.412;20.956;2024-01-27T05:10:18;19.13;;;17.67;;
22046;SDS011;11187;49.412;20.956;2024-01-27T05:12:52;18.15;;;16.52;;
22046;SDS011;11187;49.412;20.956;2024-01-27T05:15:45;16.35;;;14.82;;
22046;SDS011;11187;49.412;20.956;2024-01-27T05:18:39;17.73;;;16.33;;
22046;SDS011;11187;49.412;20.956;2024-01-27T05:21:13;16.77;;;15.68;;
22046;SDS011;11187;49.412;20.956;2024-01-27T05:24:00;16.52;;;15.27;;
22046;SDS011;11187;49.412;20.956;2024-01-27T05:26:34;17.65;;;16.00;;
22046;SDS011;11187;49.412;20.956;2024-01-27T05:29:20;15.55;;;14.48;;
22046;SDS011;11187;49.412;20.956;2024-01-27T05:31:54;18.00;;;16.25;;
22046;SDS011;11187;49.412;20.956;2024-01-27T05:34:40;15.90;;;14.35;;
22046;SDS011;11187;49.412;20.956;2024-01-27T05:37:14;15.75;;;14.52;;
22046;SDS011;11187;49.412;20.956;2024-01-27T05:40:00;16.25;;;14.60;;
22046;SDS011;11187;49.412;20.956;2024-01-27T05:42:35;16.42;;;14.90;;
22046;SDS011;11187;49.412;20.956;2024-01-27T05:45:31;16.55;;;14.93;;
22046;SDS011;11187;49.412;20.956;2024-01-27T05:48:05;18.60;;;17.00;;
22046;SDS011;11187;49.412;20.956;2024-01-27T05:51:00;17.35;;;15.65;;
22046;SDS011;11187;49.412;20.956;2024-01-27T05:53:34;15.07;;;13.98;;
22046;SDS011;11187;49.412;20.956;2024-01-27T05:56:28;18.25;;;16.55;;
22046;SDS011;11187;49.412;20.956;2024-01-27T05:59:16;18.65;;;17.35;;
22046;SDS011;11187;49.412;20.956;2024-01-27T06:01:55;21.25;;;18.80;;
22046;SDS011;11187;49.412;20.956;2024-01-27T06:04:30;21.30;;;19.45;;
22046;SDS011;11187;49.412;20.956;2024-01-27T06:07:16;17.08;;;15.68;;
22046;SDS011;11187;49.412;20.956;2024-01-27T06:09:50;16.58;;;15.45;;
22046;SDS011;11187;49.412;20.956;2024-01-27T06:12:37;19.33;;;17.17;;
22046;SDS011;11187;49.412;20.956;2024-01-27T06:15:11;16.08;;;15.00;;
22046;SDS011;11187;49.412;20.956;2024-01-27T06:17:57;16.75;;;15.48;;
22046;SDS011;11187;49.412;20.956;2024-01-27T06:20:31;14.85;;;13.85;;
22046;SDS011;11187;49.412;20.956;2024-01-27T06:23:26;13.00;;;12.20;;
22046;SDS011;11187;49.412;20.956;2024-01-27T06:26:04;13.70;;;12.70;;
22046;SDS011;11187;49.412;20.956;2024-01-27T06:28:53;15.13;;;13.45;;
22046;SDS011;11187;49.412;20.956;2024-01-27T06:31:27;14.70;;;13.32;;
22046;SDS011;11187;49.412;20.956;2024-01-27T06:34:20;16.63;;;15.30;;
22046;SDS011;11187;49.412;20.956;2024-01-27T06:37:14;15.20;;;13.82;;
22046;SDS011;11187;49.412;20.956;2024-01-27T06:39:48;10.95;;;9.68;;
22046;SDS011;11187;49.412;20.956;2024-01-27T06:42:35;12.35;;;11.15;;
22046;SDS011;11187;49.412;20.956;2024-01-27T06:45:09;14.90;;;13.48;;
22046;SDS011;11187;49.412;20.956;2024-01-27T06:47:55;16.52;;;15.13;;
22046;SDS011;11187;49.412;20.956;2024-01-27T06:50:29;15.25;;;13.70;;
22046;SDS011;11187;49.412;20.956;2024-01-27T06:53:22;13.65;;;12.40;;
22046;SDS011;11187;49.412;20.956;2024-01-27T06:56:16;16.13;;;14.85;;
22046;SDS011;11187;49.412;20.956;2024-01-27T06:59:10;15.00;;;13.75;;
22046;SDS011;11187;49.412;20.956;2024-01-27T07:01:48;14.77;;;13.32;;
22046;SDS011;11187;49.412;20.956;2024-01-27T07:04:41;16.17;;;14.93;;
22046;SDS011;11187;49.412;20.956;2024-01-27T07:07:15;14.90;;;13.82;;
22046;SDS011;11187;49.412;20.956;2024-01-27T07:10:09;14.90;;;13.55;;
22046;SDS011;11187;49.412;20.956;2024-01-27T07:12:42;17.08;;;15.60;;
22046;SDS011;11187;49.412;20.956;2024-01-27T07:15:28;15.38;;;13.82;;
22046;SDS011;11187;49.412;20.956;2024-01-27T07:18:02;17.00;;;14.07;;
22046;SDS011;11187;49.412;20.956;2024-01-27T07:20:50;16.05;;;14.57;;
22046;SDS011;11187;49.412;20.956;2024-01-27T07:23:24;13.95;;;12.93;;
22046;SDS011;11187;49.412;20.956;2024-01-27T07:26:11;16.25;;;14.70;;
22046;SDS011;11187;49.412;20.956;2024-01-27T07:29:04;15.60;;;14.30;;
22046;SDS011;11187;49.412;20.956;2024-01-27T07:31:58;14.95;;;13.57;;
22046;SDS011;11187;49.412;20.956;2024-01-27T07:34:32;14.52;;;13.13;;
22046;SDS011;11187;49.412;20.956;2024-01-27T07:37:19;14.40;;;13.48;;
22046;SDS011;11187;49.412;20.956;2024-01-27T07:39:59;14.90;;;13.70;;
22046;SDS011;11187;49.412;20.956;2024-01-27T07:42:33;13.75;;;12.75;;
22046;SDS011;11187;49.412;20.956;2024-01-27T07:45:20;14.25;;;13.13;;
22046;SDS011;11187;49.412;20.956;2024-01-27T07:47:54;15.10;;;13.85;;
22046;SDS011;11187;49.412;20.956;2024-01-27T07:50:48;13.68;;;12.48;;
22046;SDS011;11187;49.412;20.956;2024-01-27T07:53:22;18.27;;;16.88;;
22046;SDS011;11187;49.412;20.956;2024-01-27T07:56:09;16.08;;;14.68;;
22046;SDS011;11187;49.412;20.956;2024-01-27T07:58:43;16.17;;;14.75;;
22046;SDS011;11187;49.412;20.956;2024-01-27T08:01:29;14.40;;;13.02;;
22046;SDS011;11187;49.412;20.956;2024-01-27T08:04:03;16.73;;;15.25;;
22046;SDS011;11187;49.412;20.956;2024-01-27T08:06:50;15.35;;;14.05;;
22046;SDS011;11187;49.412;20.956;2024-01-27T08:09:24;14.85;;;13.65;;
22046;SDS011;11187;49.412;20.956;2024-01-27T08:12:10;16.08;;;14.45;;
22046;SDS011;11187;49.412;20.956;2024-01-27T08:14:50;14.80;;;13.85;;
22046;SDS011;11187;49.412;20.956;2024-01-27T08:17:31;14.48;;;13.25;;
22046;SDS011;11187;49.412;20.956;2024-01-27T08:20:11;15.00;;;13.73;;
22046;SDS011;11187;49.412;20.956;2024-01-27T08:22:51;15.73;;;14.43;;
22046;SDS011;11187;49.412;20.956;2024-01-27T08:25:30;14.18;;;13.18;;
22046;SDS011;11187;49.412;20.956;2024-01-27T08:28:11;14.75;;;13.32;;
22046;SDS011;11187;49.412;20.956;2024-01-27T08:30:50;15.95;;;14.30;;
22046;SDS011;11187;49.412;20.956;2024-01-27T08:33:31;17.45;;;15.57;;
22046;SDS011;11187;49.412;20.956;2024-01-27T08:36:14;16.15;;;14.02;;
22046;SDS011;11187;49.412;20.956;2024-01-27T08:38:55;15.40;;;14.30;;
22046;SDS011;11187;49.412;20.956;2024-01-27T08:41:34;16.63;;;15.20;;
22046;SDS011;11187;49.412;20.956;2024-01-27T08:44:15;17.10;;;15.57;;
22046;SDS011;11187;49.412;20.956;2024-01-27T08:46:54;14.88;;;13.88;;
22046;SDS011;11187;49.412;20.956;2024-01-27T08:49:38;17.10;;;15.73;;
22046;SDS011;11187;49.412;20.956;2024-01-27T08:52:17;17.15;;;15.70;;
22046;SDS011;11187;49.412;20.956;2024-01-27T08:54:58;15.75;;;14.68;;
22046;SDS011;11187;49.412;20.956;2024-01-27T08:57:38;18.35;;;14.93;;
22046;SDS011;11187;49.412;20.956;2024-01-27T09:00:18;16.23;;;14.82;;
22046;SDS011;11187;49.412;20.956;2024-01-27T09:02:57;17.63;;;16.13;;
22046;SDS011;11187;49.412;20.956;2024-01-27T09:05:38;14.77;;;13.68;;
22046;SDS011;11187;49.412;20.956;2024-01-27T09:08:17;17.10;;;15.82;;
22046;SDS011;11187;49.412;20.956;2024-01-27T09:10:58;16.13;;;14.98;;
22046;SDS011;11187;49.412;20.956;2024-01-27T09:13:44;17.05;;;15.40;;
22046;SDS011;11187;49.412;20.956;2024-01-27T09:16:18;16.80;;;15.25;;
22046;SDS011;11187;49.412;20.956;2024-01-27T09:19:04;16.95;;;15.75;;
22046;SDS011;11187;49.412;20.956;2024-01-27T09:21:45;16.13;;;14.70;;
22046;SDS011;11187;49.412;20.956;2024-01-27T09:24:31;15.75;;;14.65;;
22046;SDS011;11187;49.412;20.956;2024-01-27T09:27:05;17.15;;;16.02;;
22046;SDS011;11187;49.412;20.956;2024-01-27T09:29:58;14.88;;;13.50;;
22046;SDS011;11187;49.412;20.956;2024-01-27T09:32:32;16.77;;;15.32;;
22046;SDS011;11187;49.412;20.956;2024-01-27T09:35:25;15.93;;;14.75;;
22046;SDS011;11187;49.412;20.956;2024-01-27T09:37:59;15.48;;;13.98;;
22046;SDS011;11187;49.412;20.956;2024-01-27T09:40:56;16.02;;;14.65;;
22046;SDS011;11187;49.412;20.956;2024-01-27T09:43:50;17.90;;;16.20;;
22046;SDS011;11187;49.412;20.956;2024-01-27T09:46:26;16.83;;;15.63;;
22046;SDS011;11187;49.412;20.956;2024-01-27T09:49:15;20.15;;;18.45;;
22046;SDS011;11187;49.412;20.956;2024-01-27T09:51:48;17.60;;;14.90;;
22046;SDS011;11187;49.412;20.956;2024-01-27T09:54:37;15.52;;;14.35;;
22046;SDS011;11187;49.412;20.956;2024-01-27T09:57:10;18.48;;;15.80;;
22046;SDS011;11187;49.412;20.956;2024-01-27T09:59:59;14.00;;;12.90;;
22046;SDS011;11187;49.412;20.956;2024-01-27T10:02:33;16.15;;;14.73;;
22046;SDS011;11187;49.412;20.956;2024-01-27T10:05:22;16.63;;;15.15;;
22046;SDS011;11187;49.412;20.956;2024-01-27T10:07:56;16.92;;;15.13;;
22046;SDS011;11187;49.412;20.956;2024-01-27T10:10:54;14.55;;;13.23;;
22046;SDS011;11187;49.412;20.956;2024-01-27T10:13:55;14.82;;;13.63;;
22046;SDS011;11187;49.412;20.956;2024-01-27T10:16:39;14.00;;;12.70;;
22046;SDS011;11187;49.412;20.956;2024-01-27T10:19:27;15.73;;;14.38;;
22046;SDS011;11187;49.412;20.956;2024-01-27T10:22:00;15.07;;;13.82;;
22046;SDS011;11187;49.412;20.956;2024-01-27T10:24:48;14.38;;;13.15;;
22046;SDS011;11187;49.412;20.956;2024-01-27T10:27:21;14.93;;;13.40;;
22046;SDS011;11187;49.412;20.956;2024-01-27T10:30:16;16.05;;;14.57;;
22046;SDS011;11187;49.412;20.956;2024-01-27T10:33:11;15.75;;;14.07;;
22046;SDS011;11187;49.412;20.956;2024-01-27T10:36:05;15.73;;;14.13;;
22046;SDS011;11187;49.412;20.956;2024-01-27T10:38:38;13.75;;;12.65;;
22046;SDS011;11187;49.412;20.956;2024-01-27T10:41:26;14.32;;;13.25;;
22046;SDS011;11187;49.412;20.956;2024-01-27T10:43:59;13.85;;;12.70;;
22046;SDS011;11187;49.412;20.956;2024-01-27T10:46:54;15.10;;;13.90;;
22046;SDS011;11187;49.412;20.956;2024-01-27T10:49:50;14.07;;;12.90;;
22046;SDS011;11187;49.412;20.956;2024-01-27T10:52:25;15.32;;;14.13;;
22046;SDS011;11187;49.412;20.956;2024-01-27T10:55:16;12.85;;;11.93;;
22046;SDS011;11187;49.412;20.956;2024-01-27T10:57:53;13.82;;;12.90;;
22046;SDS011;11187;49.412;20.956;2024-01-27T11:00:42;15.70;;;14.50;;
22046;SDS011;11187;49.412;20.956;2024-01-27T11:03:18;14.60;;;13.52;;
22046;SDS011;11187;49.412;20.956;2024-01-27T11:06:12;13.77;;;12.65;;
22046;SDS011;11187;49.412;20.956;2024-01-27T11:09:08;13.75;;;12.85;;
22046;SDS011;11187;49.412;20.956;2024-01-27T11:12:02;15.60;;;14.65;;
22046;SDS011;11187;49.412;20.956;2024-01-27T11:15:05;15.45;;;14.52;;
22046;SDS011;11187;49.412;20.956;2024-01-27T11:18:01;14.65;;;13.73;;
22046;SDS011;11187;49.412;20.956;2024-01-27T11:20:54;14.10;;;13.07;;
22046;SDS011;11187;49.412;20.956;2024-01-27T11:23:35;14.63;;;13.52;;
22046;SDS011;11187;49.412;20.956;2024-01-27T11:26:16;15.40;;;14.20;;
22046;SDS011;11187;49.412;20.956;2024-01-27T11:29:06;14.80;;;13.75;;
22046;SDS011;11187;49.412;20.956;2024-01-27T11:31:41;14.23;;;13.32;;
22046;SDS011;11187;49.412;20.956;2024-01-27T11:34:45;15.38;;;14.45;;
22046;SDS011;11187;49.412;20.956;2024-01-27T11:37:18;15.00;;;13.98;;
22046;SDS011;11187;49.412;20.956;2024-01-27T11:40:12;15.85;;;14.75;;
22046;SDS011;11187;49.412;20.956;2024-01-27T11:43:06;14.15;;;13.25;;
22046;SDS011;11187;49.412;20.956;2024-01-27T11:45:39;16.05;;;15.05;;
22046;SDS011;11187;49.412;20.956;2024-01-27T11:48:26;16.15;;;15.05;;
22046;SDS011;11187;49.412;20.956;2024-01-27T11:51:03;17.35;;;16.30;;
22046;SDS011;11187;49.412;20.956;2024-01-27T11:53:54;17.58;;;16.15;;
22046;SDS011;11187;49.412;20.956;2024-01-27T11:56:27;15.73;;;14.80;;
22046;SDS011;11187;49.412;20.956;2024-01-27T11:59:14;15.85;;;14.90;;
22046;SDS011;11187;49.412;20.956;2024-01-27T12:01:48;18.67;;;17.48;;
22046;SDS011;11187;49.412;20.956;2024-01-27T12:04:36;18.02;;;17.02;;
22046;SDS011;11187;49.412;20.956;2024-01-27T12:07:09;18.08;;;16.98;;
22046;SDS011;11187;49.412;20.956;2024-01-27T12:10:05;16.27;;;15.38;;
22046;SDS011;11187;49.412;20.956;2024-01-27T12:12:39;16.40;;;15.27;;
22046;SDS011;11187;49.412;20.956;2024-01-27T12:15:33;16.48;;;15.38;;
22046;SDS011;11187;49.412;20.956;2024-01-27T12:18:06;20.70;;;19.33;;
22046;SDS011;11187;49.412;20.956;2024-01-27T12:21:02;19.77;;;18.48;;
22046;SDS011;11187;49.412;20.956;2024-01-27T12:23:56;18.65;;;17.50;;
22046;SDS011;11187;49.412;20.956;2024-01-27T12:26:51;18.33;;;17.23;;
22046;SDS011;11187;49.412;20.956;2024-01-27T12:29:24;20.02;;;18.73;;
22046;SDS011;11187;49.412;20.956;2024-01-27T12:32:11;20.58;;;19.05;;
22046;SDS011;11187;49.412;20.956;2024-01-27T12:34:54;20.42;;;18.85;;
22046;SDS011;11187;49.412;20.956;2024-01-27T12:37:42;20.55;;;19.25;;
22046;SDS011;11187;49.412;20.956;2024-01-27T12:40:23;18.35;;;17.13;;
22046;SDS011;11187;49.412;20.956;2024-01-27T12:43:03;20.55;;;19.15;;
22046;SDS011;11187;49.412;20.956;2024-01-27T12:45:43;20.00;;;18.70;;
22046;SDS011;11187;49.412;20.956;2024-01-27T12:48:23;18.65;;;17.45;;
22046;SDS011;11187;49.412;20.956;2024-01-27T12:51:03;20.10;;;18.80;;
22046;SDS011;11187;49.412;20.956;2024-01-27T12:53:50;18.27;;;17.08;;
22046;SDS011;11187;49.412;20.956;2024-01-27T12:56:23;21.45;;;20.05;;
22046;SDS011;11187;49.412;20.956;2024-01-27T12:59:10;21.80;;;20.30;;
22046;SDS011;11187;49.412;20.956;2024-01-27T13:01:50;18.88;;;17.73;;
22046;SDS011;11187;49.412;20.956;2024-01-27T13:04:30;18.00;;;16.70;;
22046;SDS011;11187;49.412;20.956;2024-01-27T13:07:10;18.80;;;17.23;;
22046;SDS011;11187;49.412;20.956;2024-01-27T13:09:50;20.60;;;19.17;;
22046;SDS011;11187;49.412;20.956;2024-01-27T13:12:30;19.60;;;18.25;;
22046;SDS011;11187;49.412;20.956;2024-01-27T13:15:11;20.42;;;19.13;;
22046;SDS011;11187;49.412;20.956;2024-01-27T13:17:51;21.40;;;19.90;;
22046;SDS011;11187;49.412;20.956;2024-01-27T13:20:38;19.20;;;18.00;;
22046;SDS011;11187;49.412;20.956;2024-01-27T13:23:19;17.50;;;16.30;;
22046;SDS011;11187;49.412;20.956;2024-01-27T13:26:06;21.15;;;19.75;;
22046;SDS011;11187;49.412;20.956;2024-01-27T13:28:51;20.95;;;19.40;;
22046;SDS011;11187;49.412;20.956;2024-01-27T13:31:31;19.15;;;17.83;;
22046;SDS011;11187;49.412;20.956;2024-01-27T13:34:11;20.98;;;19.75;;
22046;SDS011;11187;49.412;20.956;2024-01-27T13:36:52;21.67;;;20.38;;
22046;SDS011;11187;49.412;20.956;2024-01-27T13:39:32;18.80;;;17.70;;
22046;SDS011;11187;49.412;20.956;2024-01-27T13:42:12;19.38;;;18.17;;
22046;SDS011;11187;49.412;20.956;2024-01-27T13:44:52;18.13;;;17.02;;
22046;SDS011;11187;49.412;20.956;2024-01-27T13:47:39;19.48;;;18.17;;
22046;SDS011;11187;49.412;20.956;2024-01-27T13:50:19;19.50;;;18.10;;
22046;SDS011;11187;49.412;20.956;2024-01-27T13:53:06;18.48;;;17.25;;
22046;SDS011;11187;49.412;20.956;2024-01-27T13:55:39;19.42;;;18.20;;
22046;SDS011;11187;49.412;20.956;2024-01-27T13:58:13;18.23;;;17.05;;
22046;SDS011;11187;49.412;20.956;2024-01-27T14:00:53;19.33;;;18.02;;
22046;SDS011;11187;49.412;20.956;2024-01-27T14:03:33;17.38;;;16.17;;
22046;SDS011;11187;49.412;20.956;2024-01-27T14:06:20;20.05;;;18.60;;
22046;SDS011;11187;49.412;20.956;2024-01-27T14:09:01;17.42;;;16.35;;
22046;SDS011;11187;49.412;20.956;2024-01-27T14:11:48;17.33;;;16.13;;
22046;SDS011;11187;49.412;20.956;2024-01-27T14:14:21;19.00;;;17.80;;
22046;SDS011;11187;49.412;20.956;2024-01-27T14:17:08;17.60;;;16.40;;
22046;SDS011;11187;49.412;20.956;2024-01-27T14:19:41;18.13;;;16.88;;
22046;SDS011;11187;49.412;20.956;2024-01-27T14:22:35;18.42;;;17.23;;
22046;SDS011;11187;49.412;20.956;2024-01-27T14:25:29;17.48;;;16.10;;
22046;SDS011;11187;49.412;20.956;2024-01-27T14:28:27;19.70;;;18.35;;
22046;SDS011;11187;49.412;20.956;2024-01-27T14:31:22;17.85;;;16.63;;
22046;SDS011;11187;49.412;20.956;2024-01-27T14:33:55;20.95;;;19.55;;
22046;SDS011;11187;49.412;20.956;2024-01-27T14:36:49;19.30;;;17.60;;
22046;SDS011;11187;49.412;20.956;2024-01-27T14:39:22;18.65;;;17.35;;
22046;SDS011;11187;49.412;20.956;2024-01-27T14:42:11;20.17;;;18.75;;
22046;SDS011;11187;49.412;20.956;2024-01-27T14:44:45;21.02;;;19.48;;
22046;SDS011;11187;49.412;20.956;2024-01-27T14:47:42;20.35;;;19.02;;
22046;SDS011;11187;49.412;20.956;2024-01-27T14:50:19;20.10;;;18.63;;
22046;SDS011;11187;49.412;20.956;2024-01-27T14:53:06;20.65;;;19.25;;
22046;SDS011;11187;49.412;20.956;2024-01-27T14:55:39;19.38;;;18.08;;
22046;SDS011;11187;49.412;20.956;2024-01-27T14:58:26;18.40;;;17.17;;
22046;SDS011;11187;49.412;20.956;2024-01-27T15:00:59;19.75;;;18.45;;
22046;SDS011;11187;49.412;20.956;2024-01-27T15:03:46;17.88;;;16.58;;
22046;SDS011;11187;49.412;20.956;2024-01-27T15:06:19;19.23;;;18.02;;
22046;SDS011;11187;49.412;20.956;2024-01-27T15:09:06;20.17;;;18.95;;
22046;SDS011;11187;49.412;20.956;2024-01-27T15:11:40;19.73;;;18.23;;
22046;SDS011;11187;49.412;20.956;2024-01-27T15:14:27;19.65;;;18.25;;
22046;SDS011;11187;49.412;20.956;2024-01-27T15:17:01;16.20;;;15.20;;
22046;SDS011;11187;49.412;20.956;2024-01-27T15:19:48;17.50;;;16.45;;
22046;SDS011;11187;49.412;20.956;2024-01-27T15:22:24;21.95;;;20.60;;
22046;SDS011;11187;49.412;20.956;2024-01-27T15:25:18;20.83;;;19.33;;
22046;SDS011;11187;49.412;20.956;2024-01-27T15:27:51;18.88;;;17.58;;
22046;SDS011;11187;49.412;20.956;2024-01-27T15:30:45;19.30;;;18.05;;
22046;SDS011;11187;49.412;20.956;2024-01-27T15:33:39;18.08;;;16.98;;
22046;SDS011;11187;49.412;20.956;2024-01-27T15:36:12;18.92;;;17.73;;